createdAt,value
2023-05-01T00:02:02.377Z,6.00
2023-05-01T00:06:59.112Z,6.00
2023-05-01T00:09:28.853Z,6.00
2023-05-01T00:11:57.144Z,5.90
2023-05-01T00:14:25.328Z,6.00
2023-05-01T00:19:23.466Z,5.70
2023-05-01T00:21:53.089Z,5.80
2023-05-01T00:24:21.804Z,5.90
2023-05-01T00:26:50.016Z,5.90
2023-05-01T00:29:18.189Z,5.90
2023-05-01T00:31:47.517Z,5.60
2023-05-01T00:34:15.715Z,5.30
2023-05-01T00:36:46.197Z,5.50
2023-05-01T00:39:15.327Z,5.30
2023-05-01T00:41:43.423Z,5.50
2023-05-01T00:44:11.576Z,5.50
2023-05-01T00:46:39.766Z,5.60
2023-05-01T00:51:37.353Z,5.10
2023-05-01T00:54:07.376Z,5.30
2023-05-01T00:56:35.671Z,5.30
2023-05-01T01:01:33.412Z,5.20
2023-05-01T01:04:02.068Z,5.50
2023-05-01T01:06:37.697Z,5.30
2023-05-01T01:09:17.126Z,5.20
2023-05-01T01:11:58.753Z,5.10
2023-05-01T01:14:33.262Z,5.10
2023-05-01T01:17:06.609Z,4.90
2023-05-01T01:20:16.032Z,4.80
2023-05-01T01:22:48.442Z,4.80
2023-05-01T01:25:48.446Z,4.80
2023-05-01T01:28:35.118Z,4.80
2023-05-01T01:31:15.360Z,4.60
2023-05-01T01:33:52.420Z,4.50
2023-05-01T01:36:23.899Z,4.50
2023-05-01T01:39:04.808Z,4.50
2023-05-01T01:41:36.243Z,4.30
2023-05-01T01:44:10.412Z,4.40
2023-05-01T01:46:42.411Z,4.30
2023-05-01T01:49:20.258Z,4.10
2023-05-01T01:51:51.000Z,4.30
2023-05-01T01:54:27.525Z,4.20
2023-05-01T01:56:58.377Z,4.20
2023-05-01T01:59:27.355Z,4.20
2023-05-01T02:01:57.555Z,4.00
2023-05-01T02:04:28.904Z,4.00
2023-05-01T02:06:58.926Z,3.90
2023-05-01T02:09:29.116Z,3.80
2023-05-01T02:11:58.528Z,3.80
2023-05-01T02:14:28.241Z,3.60
2023-05-01T02:16:58.772Z,3.60
2023-05-01T02:19:28.971Z,3.60
2023-05-01T02:21:59.879Z,3.90
2023-05-01T02:24:29.538Z,3.80
2023-05-01T02:27:02.120Z,3.70
2023-05-01T02:29:30.656Z,3.50
2023-05-01T02:31:58.850Z,3.40
2023-05-01T02:34:28.901Z,3.70
2023-05-01T02:36:58.701Z,3.50
2023-05-01T02:44:25.781Z,3.60
2023-05-01T02:46:56.549Z,3.60
2023-05-01T02:49:25.096Z,3.60
2023-05-01T02:51:55.185Z,3.60
2023-05-01T02:54:23.455Z,3.40
2023-05-01T02:56:52.467Z,3.60
2023-05-01T02:59:20.758Z,3.60
2023-05-01T03:01:48.955Z,3.50
2023-05-01T03:06:45.788Z,3.40
2023-05-01T03:09:15.337Z,3.40
2023-05-01T03:11:43.509Z,2.10
2023-05-01T03:14:12.199Z,3.30
2023-05-01T03:16:40.593Z,3.30
2023-05-01T03:19:08.918Z,3.40
2023-05-01T03:21:37.084Z,3.50
2023-05-01T03:26:35.257Z,3.40
2023-05-01T03:29:03.551Z,3.50
2023-05-01T03:31:32.977Z,3.40
2023-05-01T03:34:01.454Z,3.50
2023-05-01T03:38:58.518Z,3.40
2023-05-01T03:41:50.681Z,3.50
2023-05-01T03:44:25.480Z,3.50
2023-05-01T03:46:53.767Z,3.50
2023-05-01T03:49:26.269Z,3.70
2023-05-01T03:51:54.574Z,3.70
2023-05-01T03:57:01.931Z,3.90
2023-05-01T03:59:31.500Z,4.00
2023-05-01T04:02:00.054Z,3.90
2023-05-01T04:04:30.642Z,4.10
2023-05-01T04:07:00.119Z,4.30
2023-05-01T04:09:29.836Z,4.20
2023-05-01T04:11:58.902Z,4.30
2023-05-01T04:14:28.540Z,4.30
2023-05-01T04:19:26.321Z,4.90
2023-05-01T04:21:59.152Z,4.60
2023-05-01T04:24:27.815Z,3.90
2023-05-01T04:26:55.954Z,4.60
2023-05-01T04:29:24.120Z,4.60
2023-05-01T04:31:54.550Z,5.00
2023-05-01T04:34:22.880Z,5.10
2023-05-01T04:36:51.927Z,5.10
2023-05-01T04:39:21.218Z,5.20
2023-05-01T04:41:49.518Z,5.20
2023-05-01T04:44:17.912Z,5.40
2023-05-01T04:46:46.692Z,5.50
2023-05-01T04:49:16.378Z,5.50
2023-05-01T04:51:44.524Z,5.70
2023-05-01T04:54:15.843Z,5.80
2023-05-01T04:56:44.619Z,6.00
2023-05-01T04:59:12.863Z,6.10
2023-05-01T05:01:41.475Z,5.90
2023-05-01T05:04:09.871Z,6.20
2023-05-01T05:06:39.764Z,6.30
2023-05-01T05:09:13.448Z,6.40
2023-05-01T05:11:41.902Z,6.50
2023-05-01T05:14:13.877Z,6.70
2023-05-01T05:16:42.204Z,6.80
2023-05-01T05:19:10.576Z,6.80
2023-05-01T05:21:44.231Z,6.90
2023-05-01T05:26:40.972Z,7.00
2023-05-01T05:31:37.912Z,7.40
2023-05-01T05:34:06.470Z,7.10
2023-05-01T05:36:35.636Z,7.30
2023-05-01T05:39:06.061Z,7.40
2023-05-01T05:41:35.029Z,7.50
2023-05-01T05:44:04.273Z,7.60
2023-05-01T05:46:33.049Z,7.70
2023-05-01T05:49:01.371Z,7.70
2023-05-01T05:51:33.120Z,7.80
2023-05-01T05:54:02.144Z,7.80
2023-05-01T05:56:33.932Z,7.90
2023-05-01T05:59:04.530Z,8.00
2023-05-01T06:04:01.762Z,8.20
2023-05-01T06:06:32.240Z,8.50
2023-05-01T06:09:01.101Z,8.30
2023-05-01T06:11:29.801Z,8.30
2023-05-01T06:14:00.359Z,8.60
2023-05-01T06:16:28.684Z,8.70
2023-05-01T06:18:57.156Z,8.70
2023-05-01T06:21:25.689Z,8.80
2023-05-01T06:23:53.968Z,8.90
2023-05-01T06:26:29.173Z,9.00
2023-05-01T06:28:57.461Z,9.00
2023-05-01T06:31:27.508Z,9.10
2023-05-01T06:33:57.279Z,9.40
2023-05-01T06:36:31.459Z,9.40
2023-05-01T06:38:59.823Z,9.40
2023-05-01T06:41:28.399Z,9.50
2023-05-01T06:43:56.671Z,9.60
2023-05-01T06:48:54.914Z,9.80
2023-05-01T06:51:23.018Z,9.90
2023-05-01T06:53:51.142Z,10.00
2023-05-01T06:56:19.326Z,9.90
2023-05-01T06:58:47.713Z,10.10
2023-05-01T07:01:16.114Z,10.10
2023-05-01T07:03:44.740Z,10.10
2023-05-01T07:06:14.225Z,10.20
2023-05-01T07:08:42.841Z,10.30
2023-05-01T07:11:11.055Z,10.10
2023-05-01T07:13:39.726Z,10.20
2023-05-01T07:16:08.647Z,10.30
2023-05-01T07:18:37.913Z,10.40
2023-05-01T07:21:06.736Z,10.30
2023-05-01T07:23:36.165Z,10.50
2023-05-01T07:26:04.476Z,10.70
2023-05-01T07:28:32.868Z,10.70
2023-05-01T07:31:01.890Z,10.70
2023-05-01T07:35:58.450Z,10.90
2023-05-01T07:40:57.071Z,11.00
2023-05-01T07:43:25.421Z,11.10
2023-05-01T07:45:58.350Z,11.20
2023-05-01T07:48:26.990Z,11.00
2023-05-01T07:50:55.578Z,11.20
2023-05-01T07:53:23.899Z,11.00
2023-05-01T07:55:52.247Z,11.50
2023-05-01T07:58:21.870Z,11.40
2023-05-01T08:00:50.011Z,11.70
2023-05-01T08:03:18.328Z,11.90
2023-05-01T08:05:46.615Z,11.40
2023-05-01T08:08:20.591Z,11.40
2023-05-01T08:10:49.070Z,11.40
2023-05-01T08:13:17.250Z,11.60
2023-05-01T08:15:48.517Z,11.80
2023-05-01T08:18:20.738Z,11.80
2023-05-01T08:20:49.787Z,12.00
2023-05-01T08:23:18.665Z,11.90
2023-05-01T08:25:50.846Z,12.20
2023-05-01T08:28:20.908Z,12.00
2023-05-01T08:30:50.492Z,12.00
2023-05-01T08:35:47.222Z,12.30
2023-05-01T08:38:15.863Z,12.10
2023-05-01T08:40:52.251Z,12.60
2023-05-01T08:43:20.836Z,12.40
2023-05-01T08:45:52.280Z,12.40
2023-05-01T08:48:21.911Z,12.30
2023-05-01T08:50:51.739Z,12.60
2023-05-01T08:53:21.317Z,12.70
2023-05-01T08:55:51.786Z,12.80
2023-05-01T08:58:20.696Z,13.10
2023-05-01T09:00:50.307Z,13.10
2023-05-01T09:03:19.554Z,12.90
2023-05-01T09:05:48.027Z,12.90
2023-05-01T09:08:16.283Z,12.80
2023-05-01T09:10:57.729Z,12.60
2023-05-01T09:13:33.338Z,12.70
2023-05-01T09:16:03.485Z,13.00
2023-05-01T09:18:32.313Z,13.10
2023-05-01T09:21:00.513Z,13.00
2023-05-01T09:25:58.518Z,13.30
2023-05-01T09:28:43.050Z,13.50
2023-05-01T09:31:28.780Z,13.60
2023-05-01T09:33:58.982Z,13.80
2023-05-01T09:36:28.292Z,13.80
2023-05-01T09:41:25.218Z,13.80
2023-05-01T09:43:55.110Z,13.90
2023-05-01T09:46:25.941Z,13.80
2023-05-01T09:48:56.236Z,13.70
2023-05-01T09:51:27.166Z,13.80
2023-05-01T09:53:57.819Z,14.00
2023-05-01T09:56:27.261Z,13.90
2023-05-01T09:58:56.937Z,14.00
2023-05-01T10:01:41.111Z,13.90
2023-05-01T10:04:10.128Z,14.00
2023-05-01T10:06:39.099Z,13.90
2023-05-01T10:09:16.691Z,14.00
2023-05-01T10:11:53.756Z,14.00
2023-05-01T10:14:24.212Z,13.80
2023-05-01T10:16:54.192Z,13.70
2023-05-01T10:19:22.451Z,13.90
2023-05-01T10:24:20.034Z,13.90
2023-05-01T10:26:50.184Z,13.90
2023-05-01T10:29:20.294Z,14.10
2023-05-01T10:31:48.744Z,14.30
2023-05-01T10:34:21.719Z,14.20
2023-05-01T10:36:57.357Z,14.30
2023-05-01T10:39:32.442Z,14.50
2023-05-01T10:42:05.588Z,14.60
2023-05-01T10:44:35.772Z,14.60
2023-05-01T10:47:41.486Z,14.50
2023-05-01T10:50:12.329Z,14.60
2023-05-01T10:53:17.507Z,14.60
2023-05-01T10:55:46.910Z,14.90
2023-05-01T11:00:44.104Z,15.00
2023-05-01T11:03:37.354Z,15.20
2023-05-01T11:06:10.477Z,15.20
2023-05-01T11:08:39.894Z,15.20
2023-05-01T11:11:45.488Z,15.30
2023-05-01T11:14:13.707Z,15.40
2023-05-01T11:16:43.362Z,15.40
2023-05-01T11:19:13.178Z,15.60
2023-05-01T11:21:42.702Z,15.60
2023-05-01T11:24:11.486Z,16.00
2023-05-01T11:26:41.069Z,16.10
2023-05-01T11:29:10.793Z,15.60
2023-05-01T11:34:08.434Z,15.60
2023-05-01T11:36:50.835Z,15.60
2023-05-01T11:41:48.561Z,15.70
2023-05-01T11:44:18.117Z,15.80
2023-05-01T11:46:46.210Z,15.90
2023-05-01T11:49:14.681Z,15.90
2023-05-01T11:51:42.862Z,16.00
2023-05-01T11:54:15.568Z,16.10
2023-05-01T11:56:44.190Z,17.30
2023-05-01T11:59:15.612Z,16.00
2023-05-01T12:01:45.564Z,16.00
2023-05-01T12:04:14.865Z,16.20
2023-05-01T12:06:45.501Z,16.30
2023-05-01T12:09:18.714Z,16.20
2023-05-01T12:11:51.184Z,16.20
2023-05-01T12:14:21.604Z,16.30
2023-05-01T12:16:50.427Z,16.40
2023-05-01T12:19:19.358Z,16.40
2023-05-01T12:21:48.310Z,16.50
2023-05-01T12:24:20.055Z,16.50
2023-05-01T12:27:00.569Z,16.50
2023-05-01T12:29:40.908Z,16.50
2023-05-01T12:32:10.582Z,16.50
2023-05-01T12:34:39.122Z,16.80
2023-05-01T12:37:07.454Z,16.50
2023-05-01T12:39:40.444Z,16.40
2023-05-01T12:42:18.706Z,16.50
2023-05-01T12:44:47.128Z,16.70
2023-05-01T12:47:15.416Z,16.70
2023-05-01T12:49:43.734Z,16.70
2023-05-01T12:52:11.993Z,16.70
2023-05-01T12:54:44.905Z,16.90
2023-05-01T12:57:15.613Z,16.70
2023-05-01T12:59:45.126Z,16.80
2023-05-01T13:02:16.203Z,16.80
2023-05-01T13:04:45.567Z,16.80
2023-05-01T13:07:15.061Z,17.30
2023-05-01T13:09:54.991Z,17.00
2023-05-01T13:12:24.388Z,17.00
2023-05-01T13:14:53.927Z,16.90
2023-05-01T13:17:27.194Z,17.00
2023-05-01T13:19:57.061Z,17.10
2023-05-01T13:22:33.576Z,17.10
2023-05-01T13:25:04.972Z,17.20
2023-05-01T13:27:33.778Z,17.80
2023-05-01T13:30:02.843Z,17.10
2023-05-01T13:32:33.111Z,17.10
2023-05-01T13:35:03.729Z,17.90
2023-05-01T13:37:32.671Z,17.50
2023-05-01T13:40:01.148Z,17.30
2023-05-01T13:42:31.314Z,17.50
2023-05-01T13:45:00.310Z,17.40
2023-05-01T13:47:29.301Z,17.50
2023-05-01T13:49:58.256Z,17.50
2023-05-01T13:52:26.826Z,17.40
2023-05-01T13:54:57.532Z,17.40
2023-05-01T13:57:26.582Z,17.60
2023-05-01T13:59:56.133Z,17.60
2023-05-01T14:02:29.057Z,17.70
2023-05-01T14:05:00.149Z,17.80
2023-05-01T14:07:29.378Z,18.00
2023-05-01T14:09:59.556Z,17.90
2023-05-01T14:12:29.593Z,17.90
2023-05-01T14:15:01.328Z,17.90
2023-05-01T14:17:32.619Z,18.00
2023-05-01T14:20:00.866Z,17.80
2023-05-01T14:22:30.729Z,17.90
2023-05-01T14:24:59.478Z,18.00
2023-05-01T14:27:27.917Z,18.30
2023-05-01T14:29:56.279Z,18.00
2023-05-01T14:32:26.303Z,18.00
2023-05-01T14:34:54.569Z,18.10
2023-05-01T14:37:22.971Z,18.00
2023-05-01T14:39:51.209Z,18.10
2023-05-01T14:42:19.289Z,18.10
2023-05-01T14:44:47.562Z,18.20
2023-05-01T14:47:18.349Z,18.30
2023-05-01T14:49:53.449Z,18.20
2023-05-01T14:52:22.464Z,18.00
2023-05-01T14:54:52.472Z,17.90
2023-05-01T14:57:20.744Z,17.80
2023-05-01T14:59:48.819Z,18.20
2023-05-01T15:02:17.231Z,17.90
2023-05-01T15:04:46.846Z,17.80
2023-05-01T15:07:15.256Z,17.90
2023-05-01T15:09:43.735Z,18.00
2023-05-01T15:12:11.945Z,17.90
2023-05-01T15:14:40.163Z,17.90
2023-05-01T15:17:11.763Z,17.80
2023-05-01T15:19:40.051Z,18.00
2023-05-01T15:22:09.564Z,17.70
2023-05-01T15:24:39.095Z,17.60
2023-05-01T15:27:08.429Z,17.40
2023-05-01T15:29:36.581Z,17.80
2023-05-01T15:32:11.912Z,17.90
2023-05-01T15:34:42.905Z,17.80
2023-05-01T15:37:12.592Z,17.80
2023-05-01T15:39:40.777Z,17.70
2023-05-01T15:42:09.970Z,17.80
2023-05-01T15:44:39.531Z,17.80
2023-05-01T15:47:07.608Z,17.70
2023-05-01T15:49:36.106Z,17.70
2023-05-01T15:52:04.258Z,17.60
2023-05-01T15:54:34.045Z,17.60
2023-05-01T15:57:03.247Z,17.60
2023-05-01T15:59:31.761Z,17.70
2023-05-01T16:01:59.814Z,17.50
2023-05-01T16:04:28.089Z,17.40
2023-05-01T16:06:56.164Z,17.50
2023-05-01T16:09:30.470Z,17.50
2023-05-01T16:12:00.803Z,17.50
2023-05-01T16:14:29.486Z,17.50
2023-05-01T16:16:57.868Z,17.70
2023-05-01T16:19:26.014Z,17.60
2023-05-01T16:21:54.335Z,17.60
2023-05-01T16:24:22.598Z,17.60
2023-05-01T16:26:50.906Z,17.40
2023-05-01T16:29:20.445Z,17.20
2023-05-01T16:34:18.957Z,17.10
2023-05-01T16:36:47.591Z,17.10
2023-05-01T16:39:19.214Z,17.00
2023-05-01T16:41:49.263Z,16.80
2023-05-01T16:44:17.964Z,16.60
2023-05-01T16:46:54.605Z,16.40
2023-05-01T16:49:23.421Z,16.30
2023-05-01T16:51:56.540Z,16.30
2023-05-01T16:54:25.143Z,16.20
2023-05-01T16:56:53.247Z,16.20
2023-05-01T17:01:52.962Z,16.10
2023-05-01T17:04:21.382Z,15.90
2023-05-01T17:06:49.813Z,15.80
2023-05-01T17:09:18.055Z,15.60
2023-05-01T17:11:56.897Z,15.40
2023-05-01T17:14:25.378Z,15.40
2023-05-01T17:16:54.970Z,15.50
2023-05-01T17:19:23.209Z,15.30
2023-05-01T17:21:51.337Z,15.20
2023-05-01T17:24:19.712Z,15.20
2023-05-01T17:26:47.862Z,15.10
2023-05-01T17:29:16.258Z,15.10
2023-05-01T17:31:44.359Z,15.10
2023-05-01T17:34:14.006Z,14.90
2023-05-01T17:36:42.151Z,14.70
2023-05-01T17:39:10.314Z,14.60
2023-05-01T17:41:39.048Z,14.60
2023-05-01T17:44:07.272Z,14.50
2023-05-01T17:46:35.469Z,14.40
2023-05-01T17:49:03.871Z,14.30
2023-05-01T17:51:33.977Z,13.90
2023-05-01T17:54:02.630Z,13.90
2023-05-01T17:56:30.795Z,13.70
2023-05-01T17:58:58.991Z,13.60
2023-05-01T18:03:56.946Z,13.40
2023-05-01T18:06:25.175Z,13.20
2023-05-01T18:08:54.692Z,13.10
2023-05-01T18:11:22.840Z,13.10
2023-05-01T18:13:50.949Z,13.00
2023-05-01T18:16:19.414Z,12.90
2023-05-01T18:18:48.241Z,12.80
2023-05-01T18:21:16.916Z,12.70
2023-05-01T18:23:48.440Z,12.60
2023-05-01T18:26:19.340Z,12.60
2023-05-01T18:28:47.849Z,12.50
2023-05-01T18:31:16.373Z,12.40
2023-05-01T18:33:44.484Z,12.30
2023-05-01T18:36:12.589Z,12.40
2023-05-01T18:38:40.704Z,12.30
2023-05-01T18:43:38.656Z,12.20
2023-05-01T18:53:37.988Z,12.20
2023-05-01T18:56:09.433Z,12.10
2023-05-01T18:58:39.992Z,11.90
2023-05-01T19:01:08.254Z,11.90
2023-05-01T19:03:36.473Z,11.90
2023-05-01T19:06:04.806Z,11.80
2023-05-01T19:08:33.100Z,12.20
2023-05-01T19:13:29.758Z,11.60
2023-05-01T19:15:59.408Z,11.50
2023-05-01T19:18:27.539Z,11.40
2023-05-01T19:20:55.961Z,11.70
2023-05-01T19:23:24.268Z,11.50
2023-05-01T19:25:52.453Z,11.50
2023-05-01T19:28:20.665Z,11.50
2023-05-01T19:33:20.752Z,11.40
2023-05-01T19:35:50.622Z,11.50
2023-05-01T19:38:18.824Z,11.30
2023-05-01T19:40:46.990Z,11.10
2023-05-01T19:43:15.290Z,11.10
2023-05-01T19:45:43.772Z,11.10
2023-05-01T19:48:12.150Z,11.10
2023-05-01T19:50:42.894Z,11.10
2023-05-01T19:53:11.716Z,11.10
2023-05-01T19:55:40.899Z,11.10
2023-05-01T19:58:09.321Z,11.00
2023-05-01T20:03:06.530Z,10.80
2023-05-01T20:05:34.836Z,10.80
2023-05-01T20:08:05.192Z,10.80
2023-05-01T20:10:34.667Z,10.70
2023-05-01T20:13:10.000Z,10.50
2023-05-01T20:15:39.188Z,10.40
2023-05-01T20:18:07.798Z,10.40
2023-05-01T20:20:36.178Z,10.30
2023-05-01T20:23:13.216Z,10.40
2023-05-01T20:25:42.334Z,10.30
2023-05-01T20:28:12.977Z,10.50
2023-05-01T20:30:44.337Z,10.40
2023-05-01T20:35:42.425Z,10.30
2023-05-01T20:38:12.499Z,10.30
2023-05-01T20:40:41.064Z,10.20
2023-05-01T20:43:09.585Z,10.10
2023-05-01T20:45:37.780Z,9.80
2023-05-01T20:48:06.240Z,10.00
2023-05-01T20:50:35.515Z,10.10
2023-05-01T20:53:04.069Z,10.20
2023-05-01T20:55:33.499Z,10.00
2023-05-01T21:00:30.148Z,10.10
2023-05-01T21:02:59.967Z,10.20
2023-05-01T21:05:28.493Z,10.00
2023-05-01T21:07:58.672Z,9.90
2023-05-01T21:10:26.777Z,9.90
2023-05-01T21:12:57.857Z,9.80
2023-05-01T21:15:27.555Z,9.70
2023-05-01T21:17:55.896Z,9.70
2023-05-01T21:20:32.147Z,9.90
2023-05-01T21:23:01.154Z,9.30
2023-05-01T21:25:31.945Z,9.40
2023-05-01T21:28:03.555Z,9.40
2023-05-01T21:30:34.295Z,9.20
2023-05-01T21:33:03.674Z,9.40
2023-05-01T21:35:32.310Z,9.30
2023-05-01T21:38:00.926Z,9.20
2023-05-01T21:40:29.014Z,10.00
2023-05-01T21:42:57.467Z,9.20
2023-05-01T21:45:28.017Z,9.50
2023-05-01T21:47:56.208Z,9.20
2023-05-01T21:50:24.361Z,9.20
2023-05-01T21:52:52.532Z,9.20
2023-05-01T21:55:22.231Z,9.10
2023-05-01T21:57:51.006Z,9.00
2023-05-01T22:00:19.416Z,8.80
2023-05-01T22:02:51.213Z,8.90
2023-05-01T22:05:22.778Z,9.10
2023-05-01T22:07:54.483Z,9.00
2023-05-01T22:10:22.804Z,8.90
2023-05-01T22:12:51.041Z,8.80
2023-05-01T22:15:19.437Z,8.80
2023-05-01T22:17:48.959Z,8.70
2023-05-01T22:20:17.214Z,8.60
2023-05-01T22:22:45.608Z,8.70
2023-05-01T22:25:13.850Z,8.90
2023-05-01T22:27:41.947Z,8.70
2023-05-01T22:30:11.206Z,8.50
2023-05-01T22:32:39.516Z,8.50
2023-05-01T22:35:10.313Z,8.50
2023-05-01T22:37:38.473Z,8.30
2023-05-01T22:40:08.340Z,8.50
2023-05-01T22:42:36.844Z,8.50
2023-05-01T22:45:05.797Z,8.40
2023-05-01T22:47:34.256Z,8.50
2023-05-01T22:50:02.710Z,8.60
2023-05-01T22:52:32.655Z,8.70
2023-05-01T22:55:00.856Z,8.20
2023-05-01T22:57:29.196Z,8.30
2023-05-01T22:59:57.624Z,8.20
2023-05-01T23:02:26.097Z,8.10
2023-05-01T23:04:54.634Z,8.10
2023-05-01T23:07:22.917Z,8.30
2023-05-01T23:09:53.073Z,8.30
2023-05-01T23:12:23.579Z,8.50
2023-05-01T23:14:51.669Z,8.30
2023-05-01T23:17:19.925Z,8.10
2023-05-01T23:22:18.028Z,8.20
2023-05-01T23:24:49.417Z,8.30
2023-05-01T23:27:22.443Z,8.60
2023-05-01T23:29:58.380Z,8.30
2023-05-01T23:32:29.453Z,8.10
2023-05-01T23:35:02.337Z,8.10
2023-05-01T23:37:30.616Z,8.20
2023-05-01T23:42:30.045Z,8.30
2023-05-01T23:44:58.302Z,8.40
2023-05-01T23:47:26.724Z,8.80
2023-05-01T23:49:55.135Z,8.60
2023-05-01T23:54:51.858Z,8.70
2023-05-01T23:57:20.128Z,8.60
2023-05-01T23:59:49.619Z,8.80
